Dalby, Iowa
Current Conditions -  °F | °C
As of 4:35 AM on Thursday 27 Nov 2014 (Local Time) from KPDC Reporting Station
Overcast Overcast  
Wind Chill: 11°   Ceiling: 2700
Heat Index: 23°   Visibility: 10mi
Dew Point: 15°   Wind: 13mph
Humidity: 72%   Direction: 300°WNW
Pressure: 30.35"   Gusts: 18mph
Location:  43.2691°N, 91.2611°W
Report Text: KPDC 271035Z AUTO 30011G16KT 10SM OVC027 M05/M09 A3035 RMK AO2 T10521095
Loading
Personal Weather Stations






























Interactive Weather Map New forecast layout! Learn more

10-Day Weather Forecast

Advertisements
Track Severe Weather on mobile